createdAt,value
2018-12-26T00:00:24.715Z,1.57
2018-12-26T00:02:54.223Z,1.50
2018-12-26T00:05:23.965Z,1.27
2018-12-26T00:07:53.941Z,1.40
2018-12-26T00:10:23.485Z,2.80
2018-12-26T00:12:53.073Z,1.27
2018-12-26T00:15:22.737Z,1.77
2018-12-26T00:17:52.363Z,1.80
2018-12-26T00:20:25.014Z,1.30
2018-12-26T00:22:54.547Z,1.27
2018-12-26T00:25:24.142Z,1.33
2018-12-26T00:27:53.750Z,1.23
2018-12-26T00:30:23.390Z,1.37
2018-12-26T00:32:53.031Z,1.83
2018-12-26T00:35:22.585Z,1.20
2018-12-26T00:37:53.197Z,1.37
2018-12-26T00:40:22.687Z,0.87
2018-12-26T00:42:52.237Z,1.00
2018-12-26T00:45:21.856Z,1.30
2018-12-26T00:47:54.141Z,1.30
2018-12-26T00:50:23.755Z,0.93
2018-12-26T00:52:54.803Z,1.70
2018-12-26T00:55:25.780Z,1.20
2018-12-26T00:57:55.330Z,1.40
2018-12-26T01:00:24.901Z,1.93
2018-12-26T01:02:54.486Z,1.33
2018-12-26T01:05:24.134Z,1.33
2018-12-26T01:07:53.735Z,1.30
2018-12-26T01:10:23.393Z,1.37
2018-12-26T01:12:53.428Z,1.53
2018-12-26T01:15:22.949Z,1.07
2018-12-26T01:17:52.595Z,1.40
2018-12-26T01:20:22.065Z,1.33
2018-12-26T01:22:51.608Z,1.03
2018-12-26T01:25:24.028Z,1.80
2018-12-26T01:27:53.671Z,1.47
2018-12-26T01:30:23.309Z,1.87
2018-12-26T01:32:52.869Z,1.53
2018-12-26T01:35:22.375Z,1.93
2018-12-26T01:37:52.065Z,2.27
2018-12-26T01:40:21.574Z,2.33
2018-12-26T01:42:51.170Z,2.30
2018-12-26T01:45:20.763Z,1.70
2018-12-26T01:47:50.352Z,1.00
2018-12-26T01:50:20.036Z,1.60
2018-12-26T01:52:51.549Z,1.83
2018-12-26T01:55:21.219Z,2.07
2018-12-26T01:57:51.262Z,1.87
2018-12-26T02:00:21.958Z,1.20
2018-12-26T02:02:51.429Z,2.13
2018-12-26T02:05:21.068Z,2.40
2018-12-26T02:07:50.663Z,1.33
2018-12-26T02:10:20.272Z,1.83
2018-12-26T02:12:49.876Z,1.70
2018-12-26T02:15:19.480Z,1.83
2018-12-26T02:17:49.117Z,1.57
2018-12-26T02:20:18.660Z,2.07
2018-12-26T02:22:48.290Z,2.00
2018-12-26T02:25:17.809Z,1.50
2018-12-26T02:27:47.572Z,1.70
2018-12-26T02:30:17.176Z,1.67
2018-12-26T02:32:47.989Z,1.30
2018-12-26T02:35:17.637Z,1.50
2018-12-26T02:37:47.334Z,1.50
2018-12-26T02:40:16.875Z,1.47
2018-12-26T02:42:46.413Z,1.73
2018-12-26T02:45:16.028Z,2.30
2018-12-26T02:47:45.576Z,1.70
2018-12-26T02:50:17.850Z,1.97
2018-12-26T02:52:47.520Z,1.40
2018-12-26T02:55:17.174Z,1.80
2018-12-26T02:57:46.751Z,1.97
2018-12-26T03:00:16.370Z,2.03
2018-12-26T03:02:45.933Z,1.40
2018-12-26T03:05:15.468Z,2.10
2018-12-26T03:07:45.996Z,1.87
2018-12-26T03:10:15.510Z,1.80
2018-12-26T03:12:45.091Z,2.17
2018-12-26T03:15:14.584Z,1.53
2018-12-26T03:17:44.371Z,2.13
2018-12-26T03:20:13.845Z,2.20
2018-12-26T03:22:43.469Z,1.90
2018-12-26T03:25:12.910Z,1.97
2018-12-26T03:27:42.507Z,2.30
2018-12-26T03:30:11.909Z,1.20
2018-12-26T03:32:43.306Z,2.43
2018-12-26T03:35:12.926Z,2.23
2018-12-26T03:37:42.401Z,1.90
2018-12-26T03:40:12.447Z,1.70
2018-12-26T03:42:42.291Z,2.23
2018-12-26T03:45:13.412Z,1.57
2018-12-26T03:47:44.204Z,1.73
2018-12-26T03:50:13.839Z,1.83
2018-12-26T03:52:43.496Z,1.83
2018-12-26T03:55:13.234Z,2.20
2018-12-26T03:57:42.969Z,1.77
2018-12-26T04:00:12.552Z,1.70
2018-12-26T04:02:42.040Z,2.27
2018-12-26T04:05:11.582Z,2.13
2018-12-26T04:07:41.242Z,1.83
2018-12-26T04:10:10.906Z,1.43
2018-12-26T04:12:41.091Z,1.47
2018-12-26T04:15:10.661Z,2.13
2018-12-26T04:17:40.214Z,1.73
2018-12-26T04:20:09.818Z,2.43
2018-12-26T04:22:39.343Z,1.30
2018-12-26T04:25:08.873Z,1.93
2018-12-26T04:27:38.472Z,2.07
2018-12-26T04:30:09.148Z,0.90
2018-12-26T04:32:38.690Z,2.07
2018-12-26T04:35:08.170Z,1.47
2018-12-26T04:37:37.693Z,1.53
2018-12-26T04:40:07.320Z,1.50
2018-12-26T04:42:36.779Z,1.03
2018-12-26T04:45:06.747Z,1.53
2018-12-26T04:47:36.236Z,1.40
2018-12-26T04:50:06.045Z,1.63
2018-12-26T04:52:35.680Z,1.33
2018-12-26T04:55:05.363Z,1.80
2018-12-26T04:57:34.909Z,0.83
2018-12-26T05:00:05.477Z,0.93
2018-12-26T05:02:35.021Z,1.43
2018-12-26T05:05:04.725Z,1.30
2018-12-26T05:07:34.304Z,0.80
2018-12-26T05:10:03.868Z,0.83
2018-12-26T05:12:33.459Z,1.67
2018-12-26T05:15:02.973Z,1.03
2018-12-26T05:17:32.587Z,1.70
2018-12-26T05:20:02.106Z,1.77
2018-12-26T05:22:31.676Z,0.93
2018-12-26T05:25:01.597Z,1.03
2018-12-26T05:27:34.347Z,0.80
2018-12-26T05:30:02.417Z,1.40
2018-12-26T05:32:31.908Z,1.87
2018-12-26T05:35:01.437Z,1.03
2018-12-26T05:37:32.155Z,0.77
2018-12-26T05:40:02.607Z,0.70
2018-12-26T05:42:32.161Z,1.30
2018-12-26T05:45:03.670Z,1.00
2018-12-26T05:47:33.211Z,0.80
2018-12-26T05:50:03.651Z,0.90
2018-12-26T05:52:33.238Z,1.47
2018-12-26T05:55:03.237Z,1.47
2018-12-26T05:57:32.794Z,0.87
2018-12-26T06:00:04.211Z,1.20
2018-12-26T06:02:33.900Z,0.93
2018-12-26T06:05:03.493Z,1.20
2018-12-26T06:07:33.303Z,0.90
2018-12-26T06:10:02.989Z,0.47
2018-12-26T06:12:32.543Z,0.60
2018-12-26T06:15:03.008Z,0.90
2018-12-26T06:17:32.614Z,0.97
2018-12-26T06:20:02.050Z,0.90
2018-12-26T06:22:31.631Z,0.70
2018-12-26T06:25:01.157Z,0.70
2018-12-26T06:27:30.967Z,0.70
2018-12-26T06:30:01.707Z,0.60
2018-12-26T06:32:34.177Z,0.57
2018-12-26T06:35:03.909Z,0.87
2018-12-26T06:37:33.507Z,0.60
2018-12-26T06:40:03.065Z,0.90
2018-12-26T06:42:32.820Z,0.83
2018-12-26T06:45:02.413Z,0.70
2018-12-26T06:47:32.354Z,0.70
2018-12-26T06:50:03.088Z,0.60
2018-12-26T06:52:32.630Z,0.73
2018-12-26T06:55:03.481Z,0.77
2018-12-26T06:57:33.136Z,1.20
2018-12-26T07:00:02.701Z,0.90
2018-12-26T07:02:32.277Z,0.80
2018-12-26T07:05:03.623Z,1.10
2018-12-26T07:07:33.248Z,0.90
2018-12-26T07:10:02.837Z,0.80
2018-12-26T07:12:32.360Z,0.83
2018-12-26T07:15:02.019Z,0.87
2018-12-26T07:17:31.583Z,0.50
2018-12-26T07:20:01.155Z,0.97
2018-12-26T07:22:30.731Z,0.80
2018-12-26T07:25:00.213Z,0.80
2018-12-26T07:27:31.264Z,0.57
2018-12-26T07:30:00.885Z,0.60
2018-12-26T07:32:30.416Z,0.63
2018-12-26T07:34:59.913Z,0.73
2018-12-26T07:37:30.767Z,0.70
2018-12-26T07:40:00.359Z,0.70
2018-12-26T07:42:30.069Z,0.70
2018-12-26T07:44:59.707Z,0.87
2018-12-26T07:47:29.249Z,0.63
2018-12-26T07:49:58.817Z,0.70
2018-12-26T07:52:29.543Z,1.27
2018-12-26T07:54:59.261Z,0.60
2018-12-26T07:57:28.761Z,0.70
2018-12-26T07:59:58.392Z,0.80
2018-12-26T08:02:27.995Z,0.63
2018-12-26T08:04:57.567Z,0.50
2018-12-26T08:07:29.007Z,0.93
2018-12-26T08:09:58.341Z,0.70
2018-12-26T08:12:27.925Z,0.83
2018-12-26T08:14:57.565Z,1.10
2018-12-26T08:17:27.301Z,0.73
2018-12-26T08:19:56.898Z,1.13
2018-12-26T08:22:26.475Z,1.20
2018-12-26T08:24:57.747Z,0.60
2018-12-26T08:27:27.411Z,0.93
2018-12-26T08:29:56.981Z,0.90
2018-12-26T08:32:26.605Z,1.17
2018-12-26T08:34:56.203Z,0.60
2018-12-26T08:37:25.781Z,0.73
2018-12-26T08:39:55.374Z,1.10
2018-12-26T08:42:24.896Z,0.83
2018-12-26T08:44:54.443Z,0.80
2018-12-26T08:47:24.055Z,0.80
2018-12-26T08:49:53.579Z,0.87
2018-12-26T08:52:23.187Z,0.90
2018-12-26T08:54:54.951Z,0.53
2018-12-26T08:57:24.157Z,1.00
2018-12-26T08:59:53.747Z,0.80
2018-12-26T09:02:23.317Z,0.77
2018-12-26T09:04:52.945Z,0.80
2018-12-26T09:07:23.583Z,1.83
2018-12-26T09:09:53.141Z,1.33
2018-12-26T09:12:22.803Z,0.93
2018-12-26T09:14:52.423Z,1.13
2018-12-26T09:17:21.995Z,1.07
2018-12-26T09:19:51.726Z,1.23
2018-12-26T09:22:21.219Z,0.80
2018-12-26T09:24:50.830Z,1.03
2018-12-26T09:27:20.418Z,0.80
2018-12-26T09:29:49.988Z,1.07
2018-12-26T09:32:19.614Z,0.93
2018-12-26T09:34:51.163Z,0.97
2018-12-26T09:37:20.805Z,0.87
2018-12-26T09:39:50.294Z,0.90
2018-12-26T09:42:20.199Z,1.10
2018-12-26T09:44:54.328Z,1.50
2018-12-26T09:47:21.035Z,0.67
2018-12-26T09:49:50.563Z,0.80
2018-12-26T09:52:20.102Z,0.77
2018-12-26T09:54:49.785Z,1.13
2018-12-26T09:57:19.244Z,0.50
2018-12-26T09:59:48.803Z,1.37
2018-12-26T10:02:18.164Z,1.00
2018-12-26T10:04:47.695Z,1.43
2018-12-26T10:07:17.131Z,0.80
2018-12-26T10:09:46.628Z,0.83
2018-12-26T10:12:16.105Z,0.87
2018-12-26T10:14:45.543Z,1.40
2018-12-26T10:17:14.973Z,0.93
2018-12-26T10:19:44.302Z,0.80
2018-12-26T10:22:13.802Z,0.80
2018-12-26T10:24:43.174Z,1.00
2018-12-26T10:27:12.644Z,1.10
2018-12-26T10:29:43.437Z,0.87
2018-12-26T10:32:12.857Z,1.10
2018-12-26T10:34:42.181Z,0.80
2018-12-26T10:37:11.522Z,0.63
2018-12-26T10:39:40.969Z,0.97
2018-12-26T10:42:10.354Z,1.00
2018-12-26T10:44:39.718Z,0.90
2018-12-26T10:47:09.043Z,0.63
2018-12-26T10:49:38.483Z,0.97
2018-12-26T10:52:07.813Z,1.20
2018-12-26T10:54:37.224Z,0.77
2018-12-26T10:57:06.643Z,0.70
2018-12-26T10:59:36.342Z,0.90
2018-12-26T11:02:05.725Z,0.90
2018-12-26T11:04:35.198Z,0.87
2018-12-26T11:07:04.532Z,1.00
2018-12-26T11:09:33.940Z,0.70
2018-12-26T11:12:03.366Z,1.03
2018-12-26T11:14:32.789Z,0.70
2018-12-26T11:17:02.171Z,1.07
2018-12-26T11:19:31.517Z,1.00
2018-12-26T11:22:00.918Z,0.80
2018-12-26T11:24:30.403Z,1.00
2018-12-26T11:26:59.749Z,1.30
2018-12-26T11:29:29.154Z,0.67
2018-12-26T11:31:58.586Z,0.73
2018-12-26T11:34:27.974Z,0.93
2018-12-26T11:36:57.361Z,1.03
2018-12-26T11:39:26.709Z,0.87
2018-12-26T11:41:56.143Z,0.93
2018-12-26T11:44:25.551Z,0.83
2018-12-26T11:46:56.926Z,1.03
2018-12-26T11:49:25.930Z,0.90
2018-12-26T11:51:55.359Z,1.30
2018-12-26T11:54:24.718Z,0.73
2018-12-26T11:56:54.114Z,1.00
2018-12-26T11:59:27.101Z,0.87
2018-12-26T12:01:54.696Z,0.70
2018-12-26T12:04:24.041Z,1.10
2018-12-26T12:06:53.449Z,0.90
2018-12-26T12:09:22.790Z,0.90
2018-12-26T12:11:52.142Z,0.90
2018-12-26T12:14:21.598Z,0.80
2018-12-26T12:16:50.986Z,1.00
2018-12-26T12:19:20.354Z,0.90
2018-12-26T12:21:49.659Z,1.20
2018-12-26T12:24:19.031Z,0.60
2018-12-26T12:26:48.426Z,0.60
2018-12-26T12:29:17.786Z,1.43
2018-12-26T12:31:47.110Z,0.90
2018-12-26T12:34:16.474Z,1.37
2018-12-26T12:36:45.774Z,1.00
2018-12-26T12:39:15.094Z,0.77
2018-12-26T12:41:44.569Z,1.00
2018-12-26T12:44:14.001Z,1.00
2018-12-26T12:46:43.889Z,1.20
2018-12-26T12:49:13.290Z,0.90
2018-12-26T12:51:42.651Z,1.17
2018-12-26T12:54:11.961Z,1.17
2018-12-26T12:56:41.365Z,1.00
2018-12-26T12:59:10.670Z,1.53
2018-12-26T13:01:40.054Z,1.30
2018-12-26T13:06:58.307Z,1.20
2018-12-26T13:09:27.723Z,1.37
2018-12-26T13:11:57.148Z,1.23
2018-12-26T13:14:26.502Z,0.90
2018-12-26T13:16:55.882Z,0.97
2018-12-26T13:19:25.305Z,1.13
2018-12-26T13:21:54.699Z,1.50
2018-12-26T13:24:24.060Z,0.90
2018-12-26T13:26:53.374Z,1.23
2018-12-26T13:29:22.970Z,1.43
2018-12-26T13:31:52.359Z,1.40
2018-12-26T13:34:21.710Z,1.10
2018-12-26T13:36:51.857Z,1.20
2018-12-26T13:39:21.238Z,1.43
2018-12-26T13:41:52.903Z,1.07
2018-12-26T13:44:22.298Z,1.87
2018-12-26T13:46:51.674Z,1.23
2018-12-26T13:49:21.044Z,1.23
2018-12-26T13:51:50.438Z,1.43
2018-12-26T13:54:19.830Z,1.27
2018-12-26T13:56:49.244Z,1.63
2018-12-26T13:59:18.627Z,1.20
2018-12-26T14:01:47.982Z,1.87
2018-12-26T14:04:20.278Z,1.10
2018-12-26T14:06:49.675Z,1.97
2018-12-26T14:09:19.086Z,2.23
2018-12-26T14:11:48.478Z,1.53
2018-12-26T14:14:17.862Z,1.43
2018-12-26T14:16:47.283Z,2.00
2018-12-26T14:19:16.623Z,1.70
2018-12-26T14:21:46.170Z,1.73
2018-12-26T14:24:15.520Z,1.67
2018-12-26T14:26:44.866Z,1.30
2018-12-26T14:29:14.180Z,1.37
2018-12-26T14:31:43.598Z,2.40
2018-12-26T14:34:12.958Z,2.40
2018-12-26T14:36:42.280Z,1.27
2018-12-26T14:39:11.817Z,1.87
2018-12-26T14:41:41.261Z,1.83
2018-12-26T14:44:10.617Z,1.53
2018-12-26T14:46:39.949Z,1.57
2018-12-26T14:49:09.327Z,1.63
2018-12-26T14:51:38.705Z,1.80
2018-12-26T14:54:09.035Z,1.33
2018-12-26T14:56:38.391Z,2.17
2018-12-26T14:59:07.743Z,2.07
2018-12-26T15:01:37.130Z,1.77
2018-12-26T15:04:06.537Z,1.33
2018-12-26T15:06:35.996Z,1.13
2018-12-26T15:09:07.610Z,1.40
2018-12-26T15:11:36.986Z,2.10
2018-12-26T15:14:06.320Z,2.47
2018-12-26T15:16:35.718Z,1.73
2018-12-26T15:19:19.592Z,2.17
2018-12-26T15:21:48.959Z,1.73
2018-12-26T15:24:18.334Z,1.87
2018-12-26T15:26:47.793Z,1.40
2018-12-26T15:29:17.149Z,2.30
2018-12-26T15:31:46.500Z,1.53
2018-12-26T15:34:15.894Z,1.57
2018-12-26T15:36:45.235Z,1.43
2018-12-26T15:39:14.682Z,1.37
2018-12-26T15:41:44.092Z,1.67
2018-12-26T15:44:13.483Z,1.97
2018-12-26T15:46:42.873Z,1.97
2018-12-26T15:49:12.247Z,1.40
2018-12-26T15:51:41.592Z,1.60
2018-12-26T15:54:10.912Z,1.30
2018-12-26T15:56:40.302Z,1.03
2018-12-26T15:59:09.632Z,1.40
2018-12-26T16:01:39.010Z,1.80
2018-12-26T16:04:09.418Z,0.97
2018-12-26T16:06:38.851Z,1.23
2018-12-26T16:09:08.742Z,2.53
2018-12-26T16:11:38.139Z,1.77
2018-12-26T16:14:07.601Z,1.92
2018-12-26T16:16:37.010Z,1.73
2018-12-26T16:19:06.480Z,1.90
2018-12-26T16:21:35.811Z,1.63
2018-12-26T16:24:05.290Z,2.13
2018-12-26T16:26:34.638Z,1.57
2018-12-26T16:29:04.095Z,1.90
2018-12-26T16:31:33.498Z,1.63
2018-12-26T16:34:03.366Z,1.63
2018-12-26T16:36:32.691Z,1.67
2018-12-26T16:39:02.326Z,2.10
2018-12-26T16:41:31.665Z,1.83
2018-12-26T16:44:01.082Z,1.90
2018-12-26T16:46:30.530Z,1.87
2018-12-26T16:48:59.934Z,1.57
2018-12-26T16:51:29.325Z,1.93
2018-12-26T16:53:58.706Z,1.63
2018-12-26T16:56:28.213Z,1.40
2018-12-26T16:58:57.640Z,1.10
2018-12-26T17:01:27.054Z,1.97
2018-12-26T17:03:57.224Z,2.03
2018-12-26T17:06:26.617Z,2.00
2018-12-26T17:08:56.023Z,2.03
2018-12-26T17:11:25.407Z,1.57
2018-12-26T17:13:54.877Z,1.47
2018-12-26T17:16:24.254Z,2.23
2018-12-26T17:18:53.617Z,1.57
2018-12-26T17:21:22.945Z,1.23
2018-12-26T17:23:52.368Z,1.67
2018-12-26T17:26:21.765Z,2.80
2018-12-26T17:28:51.085Z,1.70
2018-12-26T17:31:20.447Z,1.73
2018-12-26T17:33:49.855Z,1.30
2018-12-26T17:36:19.336Z,2.20
2018-12-26T17:38:48.694Z,1.73
2018-12-26T17:41:18.083Z,1.53
2018-12-26T17:43:47.422Z,2.03
2018-12-26T17:46:16.904Z,2.17
2018-12-26T17:48:46.227Z,1.63
2018-12-26T17:51:18.875Z,1.70
2018-12-26T17:54:28.735Z,1.60
2018-12-26T17:57:07.657Z,1.80
2018-12-26T18:00:13.691Z,1.93
2018-12-26T18:02:45.761Z,2.07
2018-12-26T18:05:15.230Z,1.57
2018-12-26T18:07:44.687Z,1.53
2018-12-26T18:10:14.086Z,1.77
2018-12-26T18:12:43.426Z,2.10
2018-12-26T18:15:13.105Z,1.93
2018-12-26T18:17:42.553Z,1.63
2018-12-26T18:20:12.028Z,1.20
2018-12-26T18:22:41.458Z,1.83
2018-12-26T18:25:10.872Z,1.17
2018-12-26T18:27:40.270Z,2.67
2018-12-26T18:30:11.085Z,2.23
2018-12-26T18:32:40.475Z,1.33
2018-12-26T18:35:10.611Z,1.90
2018-12-26T18:37:40.068Z,1.83
2018-12-26T18:40:09.612Z,1.53
2018-12-26T18:42:38.955Z,1.50
2018-12-26T18:45:09.409Z,1.73
2018-12-26T18:47:38.871Z,1.60
2018-12-26T18:50:10.766Z,1.70
2018-12-26T18:52:40.229Z,1.33
2018-12-26T18:55:09.745Z,1.77
2018-12-26T18:57:39.787Z,2.47
2018-12-26T19:00:11.897Z,2.47
2018-12-26T19:02:41.343Z,2.47
2018-12-26T19:05:12.106Z,2.13
2018-12-26T19:07:41.553Z,1.70
2018-12-26T19:10:11.479Z,2.30
2018-12-26T19:12:40.968Z,1.97
2018-12-26T19:15:10.538Z,2.23
2018-12-26T19:17:39.968Z,2.33
2018-12-26T19:20:11.027Z,1.70
2018-12-26T19:22:40.437Z,2.50
2018-12-26T19:25:09.887Z,2.33
2018-12-26T19:27:39.243Z,2.00
2018-12-26T19:30:11.704Z,2.27
2018-12-26T19:32:41.064Z,1.80
2018-12-26T19:35:13.495Z,2.00
2018-12-26T19:37:42.858Z,1.43
2018-12-26T19:40:12.270Z,1.27
2018-12-26T19:42:41.666Z,1.77
2018-12-26T19:45:11.018Z,1.50
2018-12-26T19:47:40.466Z,2.00
2018-12-26T19:50:10.292Z,1.87
2018-12-26T19:52:39.808Z,1.40
2018-12-26T19:55:10.179Z,1.60
2018-12-26T19:57:39.600Z,1.70
2018-12-26T20:00:10.437Z,2.47
2018-12-26T20:02:39.834Z,2.47
2018-12-26T20:05:09.218Z,3.27
2018-12-26T20:07:38.596Z,2.90
2018-12-26T20:10:09.612Z,1.90
2018-12-26T20:12:39.021Z,2.47
2018-12-26T20:15:08.442Z,1.50
2018-12-26T20:17:37.826Z,2.33
2018-12-26T20:20:07.522Z,2.13
2018-12-26T20:22:36.863Z,1.60
2018-12-26T20:25:06.898Z,3.13
2018-12-26T20:27:36.258Z,2.87
2018-12-26T20:30:06.562Z,1.63
2018-12-26T20:32:35.971Z,1.43
2018-12-26T20:35:06.854Z,1.90
2018-12-26T20:37:36.218Z,1.67
2018-12-26T20:40:06.786Z,1.63
2018-12-26T20:42:36.141Z,1.23
2018-12-26T20:45:06.002Z,1.30
2018-12-26T20:47:35.434Z,1.40
2018-12-26T20:50:05.458Z,1.80
2018-12-26T20:52:34.842Z,1.90
2018-12-26T20:55:04.284Z,2.07
2018-12-26T20:57:33.810Z,1.27
2018-12-26T21:00:03.173Z,1.60
2018-12-26T21:02:32.527Z,1.30
2018-12-26T21:05:03.494Z,1.30
2018-12-26T21:07:32.910Z,1.73
2018-12-26T21:12:37.765Z,2.33
2018-12-26T21:15:07.599Z,1.40
2018-12-26T21:17:37.108Z,1.10
2018-12-26T21:20:07.732Z,1.13
2018-12-26T21:22:37.142Z,1.40
2018-12-26T21:25:07.746Z,1.30
2018-12-26T21:27:37.069Z,1.27
2018-12-26T21:30:09.081Z,1.03
2018-12-26T21:32:38.533Z,1.50
2018-12-26T21:35:07.867Z,0.97
2018-12-26T21:37:37.394Z,1.37
2018-12-26T21:40:07.519Z,1.37
2018-12-26T21:42:36.867Z,1.17
2018-12-26T21:45:06.750Z,1.63
2018-12-26T21:47:36.401Z,1.27
2018-12-26T21:50:06.977Z,1.00
2018-12-26T21:52:36.442Z,1.03
2018-12-26T21:55:05.955Z,1.33
2018-12-26T21:57:35.388Z,2.17
2018-12-26T22:00:04.870Z,1.27
2018-12-26T22:02:34.306Z,1.07
2018-12-26T22:05:03.779Z,0.97
2018-12-26T22:07:33.118Z,1.23
2018-12-26T22:10:02.516Z,1.30
2018-12-26T22:12:31.989Z,1.90
2018-12-26T22:15:01.455Z,0.97
2018-12-26T22:17:30.905Z,0.90
2018-12-26T22:20:00.278Z,0.77
2018-12-26T22:22:29.682Z,0.90
2018-12-26T22:24:59.002Z,0.50
2018-12-26T22:27:28.475Z,1.20
2018-12-26T22:29:57.838Z,0.80
2018-12-26T22:32:30.818Z,0.63
2018-12-26T22:34:58.345Z,0.87
2018-12-26T22:37:27.648Z,0.60
2018-12-26T22:39:57.029Z,1.20
2018-12-26T22:42:26.378Z,0.70
2018-12-26T22:44:55.823Z,0.97
2018-12-26T22:47:25.244Z,1.07
2018-12-26T22:49:54.743Z,1.77
2018-12-26T22:52:24.136Z,1.50
2018-12-26T22:54:54.886Z,1.43
2018-12-26T22:57:24.766Z,1.30
2018-12-26T22:59:54.129Z,2.00
2018-12-26T23:02:23.441Z,1.30
2018-12-26T23:04:52.940Z,0.90
2018-12-26T23:07:22.345Z,1.20
2018-12-26T23:09:51.680Z,1.10
2018-12-26T23:12:21.321Z,1.00
2018-12-26T23:14:50.650Z,1.40
2018-12-26T23:17:20.094Z,1.40
2018-12-26T23:19:49.422Z,1.37
2018-12-26T23:22:18.858Z,1.43
2018-12-26T23:24:51.013Z,1.20
2018-12-26T23:27:20.387Z,1.73
2018-12-26T23:29:49.813Z,0.93
2018-12-26T23:32:19.167Z,1.30
2018-12-26T23:34:48.526Z,1.17
2018-12-26T23:37:17.974Z,1.13
2018-12-26T23:39:47.403Z,1.40
2018-12-26T23:42:16.722Z,1.00
2018-12-26T23:44:46.097Z,1.23
2018-12-26T23:47:15.458Z,1.50
2018-12-26T23:49:44.918Z,0.87
2018-12-26T23:52:14.221Z,1.07
2018-12-26T23:54:43.671Z,0.87
2018-12-26T23:57:13.010Z,1.00
2018-12-26T23:59:42.398Z,0.97
